Virgo Phoenix — 3FMO8 — position and weather

sailwx.info

Track history (hours):
 
Tides and Currents Weather Stations Pressure Air Temp Water Temp Dewpoint Dewpoint Depression Visibility Wind Speed Wind Dir Waves Ship Positions

Virgo Phoenix

Last reported at 2016-Jun-22 02:32 UTC. Time now 2016-Jun-30 08:43 UTC.
Position N 31°22' E 121°36'.
Warning: this ship's position is 8 days out of date.

Length 96 m; draft 5.5 m.

Type: Ship (hazmat cat C). MMSI: 370795000.

Date/timePositionNaut miles runAvg speedWind from/ knotsBaromVisibWave heightAir tempDewpointWater temp
2016-Jun-22 02:32N 31°22' E 121°36'9 9.5
2016-Jun-22 01:33N 31°28' E 121°27'9 9.2
2016-Jun-22 00:33N 31°34' E 121°19'1212.4
2016-Jun-21 23:33N 31°42' E 121°08'6 0.3
2016-Jun-21 02:14N 31°45' E 121°02'911.3
2016-Jun-21 01:27N 31°51' E 120°54'14 0.6
2016-Jun-20 03:30N 31°60' E 120°42'0 0.0
2016-Jun-20 02:17N 31°60' E 120°42'13 0.6
2016-Jun-19 04:15N 31°59' E 120°27'0 0.0
2016-Jun-18 10:08N 31°58' E 120°27'4 6.0
2016-Jun-18 09:32N 32°02' E 120°27'1010.0
2016-Jun-18 08:33N 31°60' E 120°39'10 9.6
2016-Jun-18 07:29N 31°59' E 120°51'3210.8
2016-Jun-18 04:33N 31°37' E 121°17'1211.5
2016-Jun-18 03:33N 31°29' E 121°27'9 8.8
2016-Jun-18 02:33N 31°23' E 121°35'9 8.7
2016-Jun-18 01:32N 31°18' E 121°43'  
2016-Jun-14 12:33N 35°12' E 139°46'1111.3
2016-Jun-14 11:33N 35°23' E 139°42'1212.4
2016-Jun-14 10:33N 35°31' E 139°54'8 7.4
2016-Jun-14 09:31N 35°32' E 140°03'0 0.0
2016-Jun-14 08:34N 35°32' E 140°03'0 0.0
2016-Jun-14 07:34N 35°32' E 140°03'0 0.0
2016-Jun-14 05:34N 35°32' E 140°03'0 0.0
2016-Jun-14 04:25N 35°32' E 140°03'0 0.0
2016-Jun-14 02:31N 35°32' E 140°03'0 0.0
2016-Jun-14 01:31N 35°32' E 140°03'0 0.0
2016-Jun-14 00:33N 35°32' E 140°03'0 0.0
2016-Jun-13 23:34N 35°32' E 140°03'3 3.0
2016-Jun-13 22:33N 35°32' E 139°60'2 1.5
2016-Jun-13 21:30N 35°31' E 139°59'0 0.0
2016-Jun-13 20:18N 35°31' E 139°59'0 0.0
2016-Jun-13 19:30N 35°31' E 139°59'0 0.0
2016-Jun-13 18:30N 35°31' E 139°59'0 0.0
2016-Jun-13 17:30N 35°31' E 139°59'0 0.0
2016-Jun-13 16:33N 35°31' E 139°59'0 0.0
2016-Jun-13 15:21N 35°31' E 139°59'0 0.0
2016-Jun-13 14:33N 35°31' E 139°59'0 0.0
2016-Jun-13 13:30N 35°31' E 139°59'0 0.0
2016-Jun-13 12:27N 35°31' E 139°59'0 0.0
2016-Jun-13 11:33N 35°31' E 139°59'3 2.7
2016-Jun-13 10:33N 35°33' E 139°59'8 7.5
2016-Jun-13 09:33N 35°40' E 139°56'0 0.0
2016-Jun-13 08:33N 35°40' E 139°56'0 0.0
2016-Jun-13 07:33N 35°40' E 139°56'0 0.0
2016-Jun-13 06:33N 35°40' E 139°56'0 0.0
2016-Jun-13 04:27N 35°40' E 139°56'0 0.0
2016-Jun-13 03:27N 35°40' E 139°56'0 0.0
2016-Jun-13 02:33N 35°40' E 139°56'2 2.1
2016-Jun-13 01:34N 35°39' E 139°58'5 4.6
2016-Jun-13 00:33N 35°35' E 140°00'1110.9
2016-Jun-12 23:33N 35°27' E 139°50'1110.7
2016-Jun-12 22:34N 35°17' E 139°45'1211.7
2016-Jun-12 21:34N 35°06' E 139°45'7412.3
2016-Jun-12 15:31N 34°25' E 138°29'  
Track history (hours):
 
Tides and Currents Weather Stations Pressure Air Temp Water Temp Dewpoint Dewpoint Depression Visibility Wind Speed Wind Dir Waves Ship Positions

Virgo Phoenix

Last reported at 2016-Jun-22 02:32 UTC. Time now 2016-Jun-30 08:43 UTC.
Position N 31°22' E 121°36'.
Warning: this ship's position is 8 days out of date.

Length 96 m; draft 5.5 m.

Type: Ship (hazmat cat C). MMSI: 370795000.

Date/timePositionNaut miles runAvg speedWind from/ knotsBaromVisibWave heightAir tempDewpointWater temp
2016-Jun-22 02:32N 31°22' E 121°36'9 9.5
2016-Jun-22 01:33N 31°28' E 121°27'9 9.2
2016-Jun-22 00:33N 31°34' E 121°19'1212.4
2016-Jun-21 23:33N 31°42' E 121°08'6 0.3
2016-Jun-21 02:14N 31°45' E 121°02'911.3
2016-Jun-21 01:27N 31°51' E 120°54'14 0.6
2016-Jun-20 03:30N 31°60' E 120°42'0 0.0
2016-Jun-20 02:17N 31°60' E 120°42'13 0.6
2016-Jun-19 04:15N 31°59' E 120°27'0 0.0
2016-Jun-18 10:08N 31°58' E 120°27'4 6.0
2016-Jun-18 09:32N 32°02' E 120°27'1010.0
2016-Jun-18 08:33N 31°60' E 120°39'10 9.6
2016-Jun-18 07:29N 31°59' E 120°51'3210.8
2016-Jun-18 04:33N 31°37' E 121°17'1211.5
2016-Jun-18 03:33N 31°29' E 121°27'9 8.8
2016-Jun-18 02:33N 31°23' E 121°35'9 8.7
2016-Jun-18 01:32N 31°18' E 121°43'  
2016-Jun-14 12:33N 35°12' E 139°46'1111.3
2016-Jun-14 11:33N 35°23' E 139°42'1212.4
2016-Jun-14 10:33N 35°31' E 139°54'8 7.4
2016-Jun-14 09:31N 35°32' E 140°03'0 0.0
2016-Jun-14 08:34N 35°32' E 140°03'0 0.0
2016-Jun-14 07:34N 35°32' E 140°03'0 0.0
2016-Jun-14 05:34N 35°32' E 140°03'0 0.0
2016-Jun-14 04:25N 35°32' E 140°03'0 0.0
2016-Jun-14 02:31N 35°32' E 140°03'0 0.0
2016-Jun-14 01:31N 35°32' E 140°03'0 0.0
2016-Jun-14 00:33N 35°32' E 140°03'0 0.0
2016-Jun-13 23:34N 35°32' E 140°03'3 3.0
2016-Jun-13 22:33N 35°32' E 139°60'2 1.5
2016-Jun-13 21:30N 35°31' E 139°59'0 0.0
2016-Jun-13 20:18N 35°31' E 139°59'0 0.0
2016-Jun-13 19:30N 35°31' E 139°59'0 0.0
2016-Jun-13 18:30N 35°31' E 139°59'0 0.0
2016-Jun-13 17:30N 35°31' E 139°59'0 0.0
2016-Jun-13 16:33N 35°31' E 139°59'0 0.0
2016-Jun-13 15:21N 35°31' E 139°59'0 0.0
2016-Jun-13 14:33N 35°31' E 139°59'0 0.0
2016-Jun-13 13:30N 35°31' E 139°59'0 0.0
2016-Jun-13 12:27N 35°31' E 139°59'0 0.0
2016-Jun-13 11:33N 35°31' E 139°59'3 2.7
2016-Jun-13 10:33N 35°33' E 139°59'8 7.5
2016-Jun-13 09:33N 35°40' E 139°56'0 0.0
2016-Jun-13 08:33N 35°40' E 139°56'0 0.0
2016-Jun-13 07:33N 35°40' E 139°56'0 0.0
2016-Jun-13 06:33N 35°40' E 139°56'0 0.0
2016-Jun-13 04:27N 35°40' E 139°56'0 0.0
2016-Jun-13 03:27N 35°40' E 139°56'0 0.0
2016-Jun-13 02:33N 35°40' E 139°56'2 2.1
2016-Jun-13 01:34N 35°39' E 139°58'5 4.6
2016-Jun-13 00:33N 35°35' E 140°00'1110.9
2016-Jun-12 23:33N 35°27' E 139°50'1110.7
2016-Jun-12 22:34N 35°17' E 139°45'1211.7
2016-Jun-12 21:34N 35°06' E 139°45'7412.3
2016-Jun-12 15:31N 34°25' E 138°29'  

Dump ship's entire track history